createdAt,value
2023-05-14T00:04:35.128Z,71.49
2023-05-14T00:09:37.989Z,71.99
2023-05-14T00:14:40.871Z,72.25
2023-05-14T00:19:43.614Z,72.60
2023-05-14T00:24:46.169Z,72.70
2023-05-14T00:29:48.652Z,72.82
2023-05-14T00:34:51.257Z,73.22
2023-05-14T00:39:53.824Z,73.09
2023-05-14T00:44:56.543Z,72.96
2023-05-14T00:49:59.184Z,72.96
2023-05-14T00:55:04.596Z,72.70
2023-05-14T01:00:08.803Z,73.26
2023-05-14T01:05:11.481Z,73.58
2023-05-14T01:10:22.064Z,73.72
2023-05-14T01:15:30.720Z,74.03
2023-05-14T01:20:33.321Z,74.09
2023-05-14T01:25:35.985Z,74.21
2023-05-14T01:31:04.421Z,74.51
2023-05-14T01:36:07.477Z,74.54
2023-05-14T01:41:10.175Z,74.88
2023-05-14T01:46:12.755Z,74.97
2023-05-14T01:51:15.409Z,74.97
2023-05-14T01:56:19.831Z,74.84
2023-05-14T02:01:22.848Z,74.95
2023-05-14T02:06:25.590Z,74.75
2023-05-14T02:11:28.130Z,75.06
2023-05-14T02:16:31.183Z,75.38
2023-05-14T02:21:33.882Z,75.20
2023-05-14T02:26:36.417Z,75.27
2023-05-14T02:31:39.250Z,75.19
2023-05-14T02:36:41.993Z,75.28
2023-05-14T02:41:44.498Z,75.64
2023-05-14T02:46:48.223Z,75.68
2023-05-14T02:51:51.037Z,75.99
2023-05-14T02:56:53.652Z,75.92
2023-05-14T03:01:56.191Z,76.13
2023-05-14T03:06:59.248Z,76.20
2023-05-14T03:12:01.892Z,76.34
2023-05-14T03:17:05.329Z,76.10
2023-05-14T03:22:07.971Z,75.93
2023-05-14T03:27:10.548Z,75.91
2023-05-14T03:32:13.143Z,75.65
2023-05-14T03:37:16.208Z,75.55
2023-05-14T03:42:18.740Z,75.68
2023-05-14T03:47:21.370Z,75.50
2023-05-14T03:52:24.001Z,75.23
2023-05-14T03:57:26.546Z,74.82
2023-05-14T04:02:29.121Z,74.85
2023-05-14T04:07:31.829Z,74.85
2023-05-14T04:12:34.522Z,74.92
2023-05-14T04:17:37.207Z,74.80
2023-05-14T04:22:40.012Z,74.49
2023-05-14T04:27:42.535Z,74.01
2023-05-14T04:32:45.587Z,73.84
2023-05-14T04:37:49.154Z,73.49
2023-05-14T04:42:52.104Z,73.35
2023-05-14T04:47:54.851Z,72.74
2023-05-14T04:52:57.660Z,72.20
2023-05-14T04:58:00.229Z,71.45
2023-05-14T05:03:03.418Z,70.70
2023-05-14T05:08:06.110Z,68.82
2023-05-14T05:13:08.787Z,62.24
2023-05-14T05:18:11.394Z,52.20
2023-05-14T05:23:14.065Z,44.30
2023-05-14T05:28:16.836Z,38.79
2023-05-14T05:33:20.748Z,34.96
2023-05-14T05:38:23.327Z,30.71
2023-05-14T05:43:25.977Z,28.50
2023-05-14T05:48:28.616Z,27.12
2023-05-14T05:53:31.153Z,25.89
2023-05-14T05:58:34.116Z,23.85
2023-05-14T06:03:36.745Z,23.42
2023-05-14T06:08:39.303Z,23.17
2023-05-14T06:13:41.879Z,22.23
2023-05-14T06:18:44.528Z,21.44
2023-05-14T06:23:47.394Z,20.73
2023-05-14T06:28:50.034Z,20.08
2023-05-14T06:33:52.681Z,19.47
2023-05-14T06:38:55.244Z,18.81
2023-05-14T06:43:57.834Z,19.25
2023-05-14T06:49:00.448Z,19.17
2023-05-14T06:54:04.702Z,18.70
2023-05-14T06:59:07.317Z,18.85
2023-05-14T07:04:10.266Z,18.81
2023-05-14T07:09:13.281Z,18.15
2023-05-14T07:14:15.926Z,18.30
2023-05-14T07:19:18.653Z,18.28
2023-05-14T07:24:21.408Z,17.57
2023-05-14T07:29:25.458Z,16.99
2023-05-14T07:34:28.121Z,16.97
2023-05-14T07:39:30.943Z,17.21
2023-05-14T07:44:33.544Z,16.96
2023-05-14T07:49:36.808Z,17.19
2023-05-14T07:54:39.354Z,17.11
2023-05-14T07:59:41.869Z,17.32
2023-05-14T08:04:45.294Z,17.52
2023-05-14T08:09:47.836Z,17.04
2023-05-14T08:14:50.376Z,17.53
2023-05-14T08:19:54.220Z,18.13
2023-05-14T08:24:59.451Z,18.24
2023-05-14T08:30:03.482Z,19.02
2023-05-14T08:35:08.704Z,19.25
2023-05-14T08:40:12.264Z,19.38
2023-05-14T08:45:25.522Z,19.71
2023-05-14T08:50:30.331Z,20.40
2023-05-14T08:55:34.231Z,20.90
2023-05-14T09:00:37.291Z,21.23
2023-05-14T09:05:40.977Z,21.20
2023-05-14T09:10:43.581Z,21.28
2023-05-14T09:15:48.394Z,21.46
2023-05-14T09:20:52.316Z,21.46
2023-05-14T09:25:54.882Z,21.81
2023-05-14T09:30:57.426Z,21.63
2023-05-14T09:36:02.777Z,21.76
2023-05-14T09:41:05.546Z,22.37
2023-05-14T09:46:08.194Z,22.96
2023-05-14T09:51:11.487Z,23.33
2023-05-14T09:56:14.802Z,22.94
2023-05-14T10:01:19.601Z,22.55
2023-05-14T10:06:25.992Z,22.61
2023-05-14T10:11:32.756Z,23.16
2023-05-14T10:16:38.686Z,23.42
2023-05-14T10:21:44.687Z,23.44
2023-05-14T10:26:47.886Z,22.99
2023-05-14T10:31:54.144Z,23.75
2023-05-14T10:37:01.961Z,22.63
2023-05-14T10:42:04.796Z,22.83
2023-05-14T10:47:07.933Z,22.98
2023-05-14T10:52:12.345Z,22.19
2023-05-14T10:57:14.938Z,22.65
2023-05-14T11:02:23.212Z,22.68
2023-05-14T11:07:30.198Z,23.45
2023-05-14T11:12:37.975Z,23.28
2023-05-14T11:17:41.977Z,23.16
2023-05-14T11:22:46.175Z,22.80
2023-05-14T11:27:50.031Z,22.17
2023-05-14T11:32:54.366Z,22.31
2023-05-14T11:37:57.015Z,22.88
2023-05-14T11:42:59.767Z,22.45
2023-05-14T11:48:02.739Z,22.98
2023-05-14T11:53:05.283Z,24.09
2023-05-14T11:58:08.189Z,27.36
2023-05-14T12:03:11.451Z,29.81
2023-05-14T12:08:26.765Z,28.52
2023-05-14T12:13:30.702Z,28.95
2023-05-14T12:18:33.696Z,28.95
2023-05-14T12:23:39.295Z,28.81
2023-05-14T12:28:43.475Z,28.14
2023-05-14T12:33:46.493Z,28.36
2023-05-14T12:38:50.418Z,28.52
2023-05-14T12:43:53.061Z,28.30
2023-05-14T12:48:56.728Z,28.47
2023-05-14T12:53:59.282Z,28.50
2023-05-14T12:59:01.939Z,29.14
2023-05-14T13:04:05.708Z,25.12
2023-05-14T13:09:08.653Z,24.84
2023-05-14T13:14:11.186Z,25.61
2023-05-14T13:19:13.865Z,25.93
2023-05-14T13:24:17.469Z,26.72
2023-05-14T13:29:20.063Z,25.47
2023-05-14T13:34:22.660Z,24.65
2023-05-14T13:39:27.090Z,24.92
2023-05-14T13:44:30.267Z,25.25
2023-05-14T13:49:32.883Z,25.00
2023-05-14T13:54:35.451Z,25.02
2023-05-14T13:59:38.358Z,25.04
2023-05-14T14:04:41.063Z,24.64
2023-05-14T14:09:45.086Z,25.15
2023-05-14T14:14:47.622Z,24.96
2023-05-14T14:19:50.155Z,24.38
2023-05-14T14:24:52.730Z,24.30
2023-05-14T14:29:56.683Z,23.83
2023-05-14T14:34:59.208Z,23.69
2023-05-14T14:40:01.851Z,23.49
2023-05-14T14:45:05.450Z,22.68
2023-05-14T14:50:08.578Z,22.63
2023-05-14T14:55:11.295Z,22.75
2023-05-14T15:00:14.979Z,22.23
2023-05-14T15:05:18.153Z,21.94
2023-05-14T15:10:20.696Z,22.44
2023-05-14T15:15:23.836Z,22.36
2023-05-14T15:20:26.764Z,22.74
2023-05-14T15:25:29.428Z,22.70
2023-05-14T15:30:32.009Z,23.10
2023-05-14T15:35:34.651Z,22.85
2023-05-14T15:40:37.221Z,22.81
2023-05-14T15:45:39.769Z,23.30
2023-05-14T15:50:42.398Z,23.52
2023-05-14T15:55:45.123Z,23.68
2023-05-14T16:00:47.819Z,23.42
2023-05-14T16:05:50.892Z,23.65
2023-05-14T16:10:53.477Z,24.09
2023-05-14T16:15:56.428Z,24.29
2023-05-14T16:20:59.086Z,24.48
2023-05-14T16:26:01.879Z,24.80
2023-05-14T16:31:04.415Z,25.04
2023-05-14T16:36:07.420Z,25.53
2023-05-14T16:41:10.532Z,25.52
2023-05-14T16:46:13.490Z,25.64
2023-05-14T16:51:16.531Z,26.09
2023-05-14T16:56:19.264Z,26.56
2023-05-14T17:01:21.937Z,26.85
2023-05-14T17:06:24.674Z,27.20
2023-05-14T17:11:27.272Z,27.51
2023-05-14T17:16:32.764Z,27.96
2023-05-14T17:21:34.263Z,28.01
2023-05-14T17:26:37.772Z,28.23
2023-05-14T17:31:40.452Z,28.48
2023-05-14T17:36:43.315Z,28.75
2023-05-14T17:41:46.269Z,28.96
2023-05-14T17:46:49.624Z,29.57
2023-05-14T17:51:52.246Z,29.89
2023-05-14T17:56:54.892Z,30.05
2023-05-14T18:01:57.479Z,30.24
2023-05-14T18:07:01.723Z,30.79
2023-05-14T18:12:04.497Z,31.37
2023-05-14T18:17:07.245Z,31.96
2023-05-14T18:22:09.860Z,32.41
2023-05-14T18:27:12.523Z,33.02
2023-05-14T18:32:15.311Z,33.72
2023-05-14T18:37:17.829Z,33.49
2023-05-14T18:42:20.516Z,33.23
2023-05-14T18:47:23.510Z,33.55
2023-05-14T18:52:26.598Z,33.89
2023-05-14T18:57:29.366Z,34.82
2023-05-14T19:02:32.029Z,35.92
2023-05-14T19:07:34.883Z,36.92
2023-05-14T19:12:37.754Z,37.42
2023-05-14T19:17:40.465Z,37.99
2023-05-14T19:22:43.043Z,38.89
2023-05-14T19:27:47.682Z,40.00
2023-05-14T19:32:50.279Z,40.71
2023-05-14T19:37:52.948Z,41.91
2023-05-14T19:42:55.521Z,42.42
2023-05-14T19:47:58.205Z,42.79
2023-05-14T19:53:01.149Z,43.40
2023-05-14T19:58:03.811Z,44.44
2023-05-14T20:03:06.509Z,45.19
2023-05-14T20:08:09.272Z,45.63
2023-05-14T20:13:11.845Z,46.34
2023-05-14T20:18:14.494Z,46.96
2023-05-14T20:23:17.203Z,47.39
2023-05-14T20:28:20.131Z,48.31
2023-05-14T20:33:22.655Z,48.85
2023-05-14T20:38:29.110Z,48.99
2023-05-14T20:43:31.726Z,48.86
2023-05-14T20:48:34.368Z,49.97
2023-05-14T20:53:38.981Z,51.28
2023-05-14T20:58:41.536Z,52.14
2023-05-14T21:03:44.335Z,52.77
2023-05-14T21:08:47.116Z,53.08
2023-05-14T21:13:49.755Z,53.17
2023-05-14T21:18:52.342Z,53.20
2023-05-14T21:23:54.956Z,53.59
2023-05-14T21:28:59.022Z,53.64
2023-05-14T21:34:01.540Z,54.04
2023-05-14T21:39:04.109Z,53.97
2023-05-14T21:44:06.673Z,53.90
2023-05-14T21:49:09.253Z,54.11
2023-05-14T21:54:11.751Z,54.54
2023-05-14T21:59:14.321Z,55.22
2023-05-14T22:04:16.857Z,55.43
2023-05-14T22:09:19.560Z,55.60
2023-05-14T22:14:22.489Z,55.04
2023-05-14T22:19:26.805Z,54.90
2023-05-14T22:24:29.419Z,55.12
2023-05-14T22:29:32.381Z,55.66
2023-05-14T22:34:34.893Z,56.04
2023-05-14T22:39:37.549Z,56.13
2023-05-14T22:44:40.360Z,55.93
2023-05-14T22:49:43.566Z,56.23
2023-05-14T22:54:46.691Z,56.34
2023-05-14T22:59:49.256Z,56.55
2023-05-14T23:04:51.899Z,57.05
2023-05-14T23:09:54.624Z,56.98
2023-05-14T23:14:59.052Z,57.45
2023-05-14T23:20:01.833Z,57.40
2023-05-14T23:25:06.153Z,57.78
2023-05-14T23:30:11.895Z,58.23
2023-05-14T23:35:14.643Z,57.97
2023-05-14T23:40:17.920Z,57.97
2023-05-14T23:45:20.534Z,58.13
2023-05-14T23:50:23.272Z,58.37
2023-05-14T23:55:26.136Z,58.48
